Long Branch, Illinois
Current Conditions -  °F | °C
As of 8:35 AM on Wednesday 22 Oct 2014 (Local Time) from KHSB Reporting Station
Clear Clear  
Wind Chill: 42°   Ceiling: Unl
Heat Index: 46°   Visibility: 10mi
Dew Point: 45°   Wind: 8mph
Humidity: 97%   Direction: 60°ENE
Pressure: 30.32"   Gusts: NA
Location:  37.8301°N, 88.6284°W
Report Text: KHSB 221335Z AUTO 06007KT 10SM CLR 08/07 A3032 RMK AO2 T00780074
Loading
Personal Weather Stations






























Interactive Weather Map
Tropical Storm Tracking
New forecast layout! Learn more

10-Day Weather Forecast

Advertisements
Track Severe Weather on mobile